createdAt,value
2018-10-16T00:01:25.052Z,17.89
2018-10-16T00:03:53.656Z,17.84
2018-10-16T00:06:21.828Z,17.81
2018-10-16T00:08:49.940Z,17.56
2018-10-16T00:11:18.082Z,17.40
2018-10-16T00:13:46.186Z,17.42
2018-10-16T00:16:14.308Z,17.47
2018-10-16T00:18:42.438Z,17.33
2018-10-16T00:21:10.587Z,17.30
2018-10-16T00:23:38.753Z,17.22
2018-10-16T00:26:06.980Z,17.22
2018-10-16T00:28:35.288Z,17.24
2018-10-16T00:31:03.423Z,17.18
2018-10-16T00:33:31.667Z,17.10
2018-10-16T00:35:59.821Z,17.08
2018-10-16T00:38:27.971Z,17.06
2018-10-16T00:40:56.099Z,17.06
2018-10-16T00:43:24.235Z,17.02
2018-10-16T00:45:52.397Z,16.89
2018-10-16T00:48:20.527Z,16.99
2018-10-16T00:50:48.655Z,17.14
2018-10-16T00:53:16.767Z,17.10
2018-10-16T00:55:44.905Z,17.15
2018-10-16T00:58:13.019Z,17.23
2018-10-16T01:00:41.161Z,17.23
2018-10-16T01:03:09.528Z,17.15
2018-10-16T01:05:37.849Z,16.98
2018-10-16T01:08:06.273Z,17.18
2018-10-16T01:10:34.435Z,17.26
2018-10-16T01:13:03.045Z,16.95
2018-10-16T01:15:31.177Z,16.96
2018-10-16T01:18:00.349Z,16.94
2018-10-16T01:20:29.582Z,16.75
2018-10-16T01:22:58.168Z,16.73
2018-10-16T01:25:26.422Z,16.72
2018-10-16T01:27:54.618Z,16.77
2018-10-16T01:30:22.759Z,16.73
2018-10-16T01:32:50.889Z,16.71
2018-10-16T01:35:19.079Z,16.78
2018-10-16T01:37:47.248Z,16.70
2018-10-16T01:40:15.550Z,16.63
2018-10-16T01:42:43.690Z,16.65
2018-10-16T01:45:11.863Z,16.62
2018-10-16T01:47:40.022Z,16.70
2018-10-16T01:50:08.605Z,16.62
2018-10-16T01:52:36.774Z,16.59
2018-10-16T01:55:05.192Z,16.49
2018-10-16T01:57:33.333Z,16.45
2018-10-16T02:00:01.503Z,16.43
2018-10-16T02:02:29.697Z,16.36
2018-10-16T02:04:58.017Z,16.52
2018-10-16T02:07:26.226Z,16.39
2018-10-16T02:09:54.378Z,16.40
2018-10-16T02:12:22.543Z,16.44
2018-10-16T02:14:50.696Z,16.39
2018-10-16T02:17:18.812Z,16.20
2018-10-16T02:19:47.009Z,16.02
2018-10-16T02:22:15.151Z,16.03
2018-10-16T02:24:43.418Z,16.06
2018-10-16T02:27:11.580Z,15.92
2018-10-16T02:29:39.705Z,15.93
2018-10-16T02:32:14.527Z,15.90
2018-10-16T02:34:42.609Z,15.98
2018-10-16T02:37:10.757Z,16.06
2018-10-16T02:39:39.385Z,16.07
2018-10-16T02:42:07.902Z,15.94
2018-10-16T02:44:36.039Z,16.03
2018-10-16T02:47:04.281Z,15.88
2018-10-16T02:49:32.581Z,15.83
2018-10-16T02:52:00.918Z,16.08
2018-10-16T02:54:29.023Z,16.03
2018-10-16T02:56:57.321Z,15.90
2018-10-16T02:59:25.651Z,15.70
2018-10-16T03:01:53.947Z,15.71
2018-10-16T03:04:23.101Z,15.83
2018-10-16T03:06:51.259Z,15.97
2018-10-16T03:09:19.406Z,15.92
2018-10-16T03:11:47.614Z,15.74
2018-10-16T03:14:15.800Z,15.84
2018-10-16T03:16:44.395Z,15.73
2018-10-16T03:19:12.552Z,15.71
2018-10-16T03:21:40.931Z,15.72
2018-10-16T03:24:09.365Z,15.69
2018-10-16T03:26:37.997Z,15.76
2018-10-16T03:29:06.765Z,15.62
2018-10-16T03:31:35.132Z,15.69
2018-10-16T03:34:03.393Z,15.76
2018-10-16T03:36:31.667Z,15.66
2018-10-16T03:38:59.815Z,15.71
2018-10-16T03:41:28.125Z,15.72
2018-10-16T03:43:59.481Z,15.76
2018-10-16T03:46:28.163Z,15.67
2018-10-16T03:48:56.474Z,15.49
2018-10-16T03:51:25.071Z,15.52
2018-10-16T03:53:55.261Z,15.53
2018-10-16T03:56:23.768Z,15.54
2018-10-16T03:58:51.998Z,15.61
2018-10-16T04:01:20.598Z,15.47
2018-10-16T04:03:49.132Z,15.49
2018-10-16T04:06:17.260Z,15.42
2018-10-16T04:08:45.418Z,15.30
2018-10-16T04:11:13.586Z,15.40
2018-10-16T04:13:41.769Z,15.32
2018-10-16T04:16:09.977Z,15.25
2018-10-16T04:18:38.280Z,15.22
2018-10-16T04:21:06.911Z,15.32
2018-10-16T04:23:35.035Z,15.46
2018-10-16T04:26:03.394Z,15.46
2018-10-16T04:28:31.881Z,15.39
2018-10-16T04:31:00.020Z,15.44
2018-10-16T04:33:28.204Z,15.42
2018-10-16T04:35:56.352Z,15.43
2018-10-16T04:38:24.662Z,15.52
2018-10-16T04:40:53.010Z,15.44
2018-10-16T04:43:21.138Z,15.48
2018-10-16T04:45:49.969Z,15.40
2018-10-16T04:48:18.243Z,15.44
2018-10-16T04:50:46.436Z,15.38
2018-10-16T04:53:14.750Z,15.30
2018-10-16T04:55:42.926Z,15.29
2018-10-16T04:58:11.232Z,15.33
2018-10-16T05:00:39.473Z,15.21
2018-10-16T05:03:07.803Z,15.18
2018-10-16T05:05:35.986Z,15.36
2018-10-16T05:08:04.552Z,15.29
2018-10-16T05:10:32.676Z,15.33
2018-10-16T05:13:00.781Z,15.37
2018-10-16T05:15:30.159Z,15.46
2018-10-16T05:17:58.369Z,15.42
2018-10-16T05:20:26.577Z,15.26
2018-10-16T05:22:55.644Z,15.13
2018-10-16T05:25:24.639Z,15.26
2018-10-16T05:27:52.855Z,15.34
2018-10-16T05:30:20.981Z,15.34
2018-10-16T05:32:49.171Z,15.38
2018-10-16T05:35:17.279Z,15.31
2018-10-16T05:37:45.573Z,15.31
2018-10-16T05:40:13.716Z,15.22
2018-10-16T05:42:41.774Z,15.18
2018-10-16T05:45:11.447Z,14.97
2018-10-16T05:47:40.871Z,14.97
2018-10-16T05:50:09.509Z,15.06
2018-10-16T05:52:37.957Z,15.01
2018-10-16T05:55:06.603Z,15.06
2018-10-16T05:57:35.083Z,15.10
2018-10-16T06:00:20.521Z,15.12
2018-10-16T06:02:48.856Z,15.23
2018-10-16T06:05:17.047Z,15.20
2018-10-16T06:07:45.435Z,15.09
2018-10-16T06:10:13.740Z,15.04
2018-10-16T06:12:41.930Z,15.02
2018-10-16T06:15:10.804Z,15.01
2018-10-16T06:17:39.115Z,15.08
2018-10-16T06:20:10.801Z,15.14
2018-10-16T06:22:39.058Z,15.14
2018-10-16T06:25:08.050Z,15.35
2018-10-16T06:27:36.414Z,15.49
2018-10-16T06:30:05.028Z,15.70
2018-10-16T06:32:33.162Z,15.85
2018-10-16T06:35:01.956Z,15.94
2018-10-16T06:37:30.640Z,15.98
2018-10-16T06:39:58.896Z,16.15
2018-10-16T06:42:27.078Z,16.37
2018-10-16T06:44:55.225Z,16.34
2018-10-16T06:47:23.590Z,16.42
2018-10-16T06:49:51.701Z,16.55
2018-10-16T06:52:20.067Z,16.60
2018-10-16T06:54:48.346Z,16.71
2018-10-16T06:57:16.587Z,16.75
2018-10-16T06:59:45.005Z,16.67
2018-10-16T07:02:13.231Z,16.66
2018-10-16T07:04:41.365Z,16.68
2018-10-16T07:07:10.450Z,16.62
2018-10-16T07:09:38.732Z,16.59
2018-10-16T07:12:07.464Z,16.42
2018-10-16T07:14:35.618Z,16.36
2018-10-16T07:17:03.953Z,16.20
2018-10-16T07:19:32.147Z,16.39
2018-10-16T07:22:00.641Z,16.42
2018-10-16T07:24:28.865Z,16.51
2018-10-16T07:26:56.965Z,16.53
2018-10-16T07:29:25.270Z,16.70
2018-10-16T07:31:53.380Z,16.84
2018-10-16T07:34:21.694Z,16.91
2018-10-16T07:36:49.875Z,16.98
2018-10-16T07:39:18.185Z,16.98
2018-10-16T07:41:46.336Z,17.05
2018-10-16T07:44:14.617Z,17.00
2018-10-16T07:46:42.778Z,17.05
2018-10-16T07:49:10.976Z,17.06
2018-10-16T07:51:39.074Z,17.06
2018-10-16T07:54:07.470Z,17.15
2018-10-16T07:56:35.650Z,17.24
2018-10-16T07:59:04.349Z,17.13
2018-10-16T08:01:32.470Z,17.01
2018-10-16T08:04:00.627Z,17.23
2018-10-16T08:06:28.764Z,17.27
2018-10-16T08:08:56.852Z,17.32
2018-10-16T08:11:25.132Z,17.32
2018-10-16T08:13:53.396Z,17.37
2018-10-16T08:16:21.512Z,17.26
2018-10-16T08:18:49.591Z,17.25
2018-10-16T08:21:17.772Z,17.31
2018-10-16T08:23:45.930Z,17.53
2018-10-16T08:26:14.114Z,17.85
2018-10-16T08:28:42.218Z,17.89
2018-10-16T08:31:10.335Z,18.28
2018-10-16T08:33:38.502Z,18.70
2018-10-16T08:36:06.802Z,18.87
2018-10-16T08:39:29.160Z,19.47
2018-10-16T08:42:50.004Z,19.97
2018-10-16T08:45:35.389Z,20.69
2018-10-16T08:48:20.610Z,21.18
2018-10-16T08:51:06.028Z,21.05
2018-10-16T08:53:34.154Z,22.48
2018-10-16T08:56:02.329Z,22.80
2018-10-16T08:58:30.424Z,23.68
2018-10-16T09:00:58.629Z,24.43
2018-10-16T09:03:26.784Z,25.08
2018-10-16T09:05:54.955Z,24.92
2018-10-16T09:08:23.145Z,25.22
2018-10-16T09:10:51.267Z,25.91
2018-10-16T09:13:19.451Z,25.74
2018-10-16T09:15:48.319Z,25.87
2018-10-16T09:18:16.510Z,25.38
2018-10-16T09:20:44.657Z,26.14
2018-10-16T09:23:12.798Z,28.11
2018-10-16T09:25:40.938Z,30.96
2018-10-16T09:28:09.125Z,30.08
2018-10-16T09:30:37.298Z,28.46
2018-10-16T09:33:05.758Z,28.56
2018-10-16T09:35:34.020Z,28.20
2018-10-16T09:38:02.202Z,27.72
2018-10-16T09:40:30.357Z,27.31
2018-10-16T09:42:58.490Z,27.00
2018-10-16T09:45:26.700Z,26.63
2018-10-16T09:47:54.900Z,26.48
2018-10-16T09:50:23.042Z,26.30
2018-10-16T09:52:51.195Z,26.13
2018-10-16T09:55:19.352Z,26.13
2018-10-16T09:57:47.525Z,25.65
2018-10-16T10:00:21.426Z,26.05
2018-10-16T10:02:49.614Z,26.08
2018-10-16T10:05:17.739Z,26.10
2018-10-16T10:07:45.998Z,27.02
2018-10-16T10:10:14.167Z,27.48
2018-10-16T10:12:49.043Z,31.45
2018-10-16T10:15:17.153Z,33.28
2018-10-16T10:17:45.295Z,33.39
2018-10-16T10:20:13.490Z,34.53
2018-10-16T10:22:41.675Z,35.84
2018-10-16T10:25:09.960Z,35.07
2018-10-16T10:27:38.145Z,34.30
2018-10-16T10:30:10.124Z,33.50
2018-10-16T10:32:38.308Z,32.17
2018-10-16T10:35:08.614Z,32.45
2018-10-16T10:37:36.791Z,33.79
2018-10-16T10:40:05.405Z,34.95
2018-10-16T10:42:33.607Z,35.16
2018-10-16T10:45:02.013Z,34.99
2018-10-16T10:47:30.293Z,34.12
2018-10-16T10:49:58.535Z,33.95
2018-10-16T10:52:26.642Z,33.33
2018-10-16T10:54:54.768Z,32.11
2018-10-16T10:57:22.875Z,30.93
2018-10-16T10:59:51.042Z,29.53
2018-10-16T11:02:19.161Z,28.55
2018-10-16T11:04:47.344Z,26.81
2018-10-16T11:07:15.476Z,26.42
2018-10-16T11:09:43.623Z,26.55
2018-10-16T11:12:11.743Z,26.51
2018-10-16T11:14:46.703Z,26.36
2018-10-16T11:17:14.857Z,26.28
2018-10-16T11:19:43.027Z,26.26
2018-10-16T11:22:12.051Z,26.28
2018-10-16T11:24:40.185Z,26.58
2018-10-16T11:27:08.399Z,27.38
2018-10-16T11:29:36.525Z,28.44
2018-10-16T11:32:04.789Z,28.81
2018-10-16T11:34:32.985Z,28.99
2018-10-16T11:37:01.223Z,28.61
2018-10-16T11:39:29.340Z,27.63
2018-10-16T11:41:57.765Z,27.36
2018-10-16T11:44:25.943Z,27.11
2018-10-16T11:46:54.111Z,26.52
2018-10-16T11:49:22.280Z,25.87
2018-10-16T11:51:50.472Z,25.97
2018-10-16T11:54:18.644Z,25.81
2018-10-16T11:56:46.791Z,26.01
2018-10-16T11:59:14.964Z,26.41
2018-10-16T12:01:43.151Z,26.40
2018-10-16T12:04:11.249Z,26.47
2018-10-16T12:06:39.399Z,26.20
2018-10-16T12:09:09.110Z,25.89
2018-10-16T12:11:38.097Z,25.70
2018-10-16T12:14:06.995Z,25.65
2018-10-16T12:16:39.706Z,25.77
2018-10-16T12:19:13.246Z,26.09
2018-10-16T12:21:41.388Z,25.72
2018-10-16T12:24:09.596Z,25.47
2018-10-16T12:26:37.718Z,25.27
2018-10-16T12:29:05.949Z,25.12
2018-10-16T12:31:34.104Z,25.41
2018-10-16T12:34:02.285Z,26.32
2018-10-16T12:36:30.516Z,27.46
2018-10-16T12:38:58.720Z,29.15
2018-10-16T12:41:26.917Z,29.60
2018-10-16T12:43:55.178Z,28.92
2018-10-16T12:46:23.322Z,27.35
2018-10-16T12:48:51.500Z,26.46
2018-10-16T12:51:19.757Z,25.84
2018-10-16T12:53:47.913Z,25.39
2018-10-16T12:56:16.168Z,24.90
2018-10-16T12:58:44.217Z,24.45
2018-10-16T13:01:12.371Z,24.19
2018-10-16T13:03:40.641Z,23.88
2018-10-16T13:06:08.750Z,23.66
2018-10-16T13:08:36.960Z,23.22
2018-10-16T13:11:05.377Z,23.02
2018-10-16T13:13:33.392Z,22.77
2018-10-16T13:16:01.521Z,22.61
2018-10-16T13:18:29.584Z,22.57
2018-10-16T13:20:57.747Z,22.43
2018-10-16T13:23:25.980Z,22.32
2018-10-16T13:25:54.151Z,21.93
2018-10-16T13:28:22.308Z,22.04
2018-10-16T13:30:50.474Z,22.10
2018-10-16T13:33:18.704Z,22.01
2018-10-16T13:35:46.855Z,21.90
2018-10-16T13:38:15.759Z,21.76
2018-10-16T13:40:43.910Z,21.62
2018-10-16T13:43:12.072Z,21.48
2018-10-16T13:45:40.233Z,21.33
2018-10-16T13:48:08.399Z,21.24
2018-10-16T13:50:36.465Z,21.15
2018-10-16T13:53:04.991Z,21.02
2018-10-16T13:55:33.103Z,20.96
2018-10-16T13:58:01.288Z,20.58
2018-10-16T14:00:29.440Z,20.44
2018-10-16T14:02:57.593Z,20.41
2018-10-16T14:05:25.816Z,20.50
2018-10-16T14:07:53.991Z,20.54
2018-10-16T14:10:22.210Z,20.45
2018-10-16T14:12:50.409Z,20.58
2018-10-16T14:15:18.614Z,20.58
2018-10-16T14:17:46.782Z,20.67
2018-10-16T14:20:15.042Z,20.58
2018-10-16T14:22:43.543Z,20.65
2018-10-16T14:25:13.060Z,20.59
2018-10-16T14:27:41.590Z,20.52
2018-10-16T14:30:11.593Z,20.54
2018-10-16T14:32:40.127Z,20.44
2018-10-16T14:35:09.254Z,20.46
2018-10-16T14:37:38.015Z,20.42
2018-10-16T14:40:08.128Z,20.30
2018-10-16T14:42:36.262Z,20.26
2018-10-16T14:45:05.339Z,20.28
2018-10-16T14:47:33.554Z,20.35
2018-10-16T14:50:01.822Z,20.32
2018-10-16T14:52:29.918Z,20.22
2018-10-16T14:54:58.145Z,20.00
2018-10-16T14:57:26.362Z,19.96
2018-10-16T14:59:55.180Z,20.03
2018-10-16T15:02:23.305Z,19.97
2018-10-16T15:04:51.610Z,19.81
2018-10-16T15:07:19.845Z,19.91
2018-10-16T15:09:48.006Z,19.96
2018-10-16T15:12:16.138Z,20.05
2018-10-16T15:14:44.306Z,20.16
2018-10-16T15:17:12.501Z,20.24
2018-10-16T15:19:40.695Z,20.34
2018-10-16T15:22:08.889Z,20.38
2018-10-16T15:24:37.068Z,20.41
2018-10-16T15:27:05.279Z,20.35
2018-10-16T15:29:40.138Z,20.31
2018-10-16T15:32:08.575Z,20.25
2018-10-16T15:34:36.653Z,20.15
2018-10-16T15:37:05.577Z,20.14
2018-10-16T15:39:33.741Z,20.11
2018-10-16T15:42:02.148Z,20.08
2018-10-16T15:44:30.314Z,19.99
2018-10-16T15:46:58.567Z,19.91
2018-10-16T15:49:26.765Z,19.72
2018-10-16T15:51:54.911Z,19.55
2018-10-16T15:54:23.380Z,19.45
2018-10-16T15:56:52.609Z,19.25
2018-10-16T15:59:20.841Z,19.25
2018-10-16T16:01:49.214Z,19.17
2018-10-16T16:04:17.440Z,19.10
2018-10-16T16:06:45.790Z,18.96
2018-10-16T16:09:14.186Z,18.88
2018-10-16T16:11:42.528Z,18.79
2018-10-16T16:14:10.754Z,18.77
2018-10-16T16:16:38.867Z,18.84
2018-10-16T16:19:07.224Z,18.70
2018-10-16T16:21:35.596Z,18.69
2018-10-16T16:24:03.950Z,18.65
2018-10-16T16:26:32.102Z,18.57
2018-10-16T16:29:00.259Z,18.54
2018-10-16T16:31:28.419Z,18.44
2018-10-16T16:33:56.642Z,18.33
2018-10-16T16:36:24.769Z,18.18
2018-10-16T16:38:53.161Z,18.04
2018-10-16T16:41:21.335Z,18.04
2018-10-16T16:43:49.518Z,17.97
2018-10-16T16:46:17.621Z,17.86
2018-10-16T16:48:45.969Z,17.76
2018-10-16T16:51:14.335Z,17.65
2018-10-16T16:53:42.432Z,17.50
2018-10-16T16:56:10.670Z,17.37
2018-10-16T16:58:38.818Z,17.37
2018-10-16T17:01:06.976Z,17.28
2018-10-16T17:03:35.159Z,17.20
2018-10-16T17:06:03.426Z,17.20
2018-10-16T17:08:31.605Z,17.20
2018-10-16T17:10:59.772Z,17.24
2018-10-16T17:13:27.945Z,17.29
2018-10-16T17:15:56.954Z,17.38
2018-10-16T17:18:25.090Z,17.43
2018-10-16T17:20:53.184Z,17.37
2018-10-16T17:23:21.368Z,17.33
2018-10-16T17:25:49.911Z,17.19
2018-10-16T17:28:17.801Z,17.17
2018-10-16T17:30:45.946Z,17.14
2018-10-16T17:33:14.266Z,17.08
2018-10-16T17:35:42.332Z,17.00
2018-10-16T17:38:10.543Z,16.92
2018-10-16T17:40:39.194Z,16.86
2018-10-16T17:43:07.329Z,16.87
2018-10-16T17:45:35.449Z,16.81
2018-10-16T17:48:03.837Z,16.79
2018-10-16T17:50:32.109Z,16.82
2018-10-16T17:53:00.304Z,16.77
2018-10-16T17:55:28.491Z,16.75
2018-10-16T17:58:03.058Z,16.73
2018-10-16T18:00:31.300Z,16.61
2018-10-16T18:02:59.456Z,16.46
2018-10-16T18:05:27.617Z,16.44
2018-10-16T18:07:55.793Z,16.37
2018-10-16T18:10:23.985Z,16.34
2018-10-16T18:12:52.164Z,16.36
2018-10-16T18:15:20.951Z,16.27
2018-10-16T18:17:49.137Z,16.10
2018-10-16T18:20:17.323Z,16.05
2018-10-16T18:22:45.773Z,16.04
2018-10-16T18:25:13.905Z,16.02
2018-10-16T18:27:43.028Z,15.98
2018-10-16T18:30:11.449Z,15.88
2018-10-16T18:32:39.866Z,15.80
2018-10-16T18:35:08.457Z,15.80
2018-10-16T18:37:36.675Z,15.81
2018-10-16T18:40:07.004Z,15.75
2018-10-16T18:42:35.152Z,15.73
2018-10-16T18:45:04.299Z,15.60
2018-10-16T18:47:32.484Z,15.50
2018-10-16T18:50:00.677Z,15.40
2018-10-16T18:52:29.547Z,15.35
2018-10-16T18:54:57.761Z,15.37
2018-10-16T18:57:25.949Z,15.29
2018-10-16T18:59:54.802Z,15.27
2018-10-16T19:02:23.241Z,15.15
2018-10-16T19:04:51.454Z,15.15
2018-10-16T19:07:19.649Z,15.15
2018-10-16T19:09:47.902Z,15.12
2018-10-16T19:12:16.122Z,15.13
2018-10-16T19:14:44.426Z,15.08
2018-10-16T19:17:12.634Z,15.05
2018-10-16T19:19:40.922Z,15.01
2018-10-16T19:22:09.152Z,14.97
2018-10-16T19:24:37.674Z,14.89
2018-10-16T19:27:06.339Z,14.84
2018-10-16T19:29:35.234Z,14.76
2018-10-16T19:32:03.671Z,14.75
2018-10-16T19:34:31.890Z,14.81
2018-10-16T19:37:00.627Z,14.81
2018-10-16T19:39:28.974Z,14.79
2018-10-16T19:41:57.224Z,14.66
2018-10-16T19:44:25.596Z,14.60
2018-10-16T19:46:53.922Z,14.55
2018-10-16T19:49:22.096Z,14.48
2018-10-16T19:51:50.288Z,14.51
2018-10-16T19:54:18.637Z,14.42
2018-10-16T19:56:46.867Z,14.46
2018-10-16T19:59:15.037Z,14.40
2018-10-16T20:01:43.299Z,14.50
2018-10-16T20:04:12.027Z,14.57
2018-10-16T20:06:40.180Z,14.53
2018-10-16T20:09:10.208Z,14.59
2018-10-16T20:11:38.442Z,14.51
2018-10-16T20:14:07.405Z,14.25
2018-10-16T20:16:35.561Z,14.20
2018-10-16T20:19:03.919Z,14.24
2018-10-16T20:21:33.113Z,14.17
2018-10-16T20:24:01.342Z,14.20
2018-10-16T20:26:29.614Z,14.28
2018-10-16T20:28:57.860Z,14.22
2018-10-16T20:31:26.027Z,14.23
2018-10-16T20:33:54.246Z,14.17
2018-10-16T20:36:22.437Z,14.21
2018-10-16T20:38:51.186Z,14.04
2018-10-16T20:41:19.450Z,13.97
2018-10-16T20:43:47.671Z,13.95
2018-10-16T20:46:15.916Z,13.97
2018-10-16T20:48:44.220Z,14.02
2018-10-16T20:51:12.415Z,14.12
2018-10-16T20:53:40.558Z,14.10
2018-10-16T20:56:09.429Z,14.06
2018-10-16T20:58:37.570Z,14.03
2018-10-16T21:01:07.021Z,13.98
2018-10-16T21:03:35.218Z,13.92
2018-10-16T21:06:05.279Z,13.78
2018-10-16T21:08:33.475Z,13.68
2018-10-16T21:11:01.616Z,13.61
2018-10-16T21:13:29.812Z,13.73
2018-10-16T21:15:59.248Z,13.69
2018-10-16T21:18:28.339Z,13.57
2018-10-16T21:20:57.073Z,13.52
2018-10-16T21:23:25.202Z,13.50
2018-10-16T21:25:53.804Z,13.47
2018-10-16T21:28:22.026Z,13.52
2018-10-16T21:30:50.192Z,13.52
2018-10-16T21:33:18.326Z,13.49
2018-10-16T21:35:46.469Z,13.52
2018-10-16T21:38:15.294Z,13.62
2018-10-16T21:40:43.458Z,13.68
2018-10-16T21:43:11.780Z,13.68
2018-10-16T21:45:39.895Z,13.67
2018-10-16T21:48:08.300Z,13.59
2018-10-16T21:50:36.452Z,13.53
2018-10-16T21:53:04.688Z,13.58
2018-10-16T21:55:32.800Z,13.49
2018-10-16T21:58:01.201Z,13.42
2018-10-16T22:00:37.924Z,13.32
2018-10-16T22:03:06.272Z,13.31
2018-10-16T22:05:34.554Z,13.29
2018-10-16T22:08:02.782Z,13.28
2018-10-16T22:10:31.458Z,13.38
2018-10-16T22:12:59.612Z,13.30
2018-10-16T22:15:27.797Z,13.13
2018-10-16T22:17:55.961Z,13.12
2018-10-16T22:20:24.102Z,13.13
2018-10-16T22:22:52.356Z,13.23
2018-10-16T22:25:21.054Z,13.18
2018-10-16T22:27:49.215Z,13.17
2018-10-16T22:30:17.428Z,13.18
2018-10-16T22:32:46.175Z,13.15
2018-10-16T22:35:14.595Z,13.19
2018-10-16T22:37:43.317Z,13.19
2018-10-16T22:40:11.494Z,13.17
2018-10-16T22:42:39.653Z,13.18
2018-10-16T22:45:08.415Z,13.18
2018-10-16T22:47:36.639Z,13.11
2018-10-16T22:50:08.600Z,12.99
2018-10-16T22:52:36.711Z,12.96
2018-10-16T22:55:06.146Z,12.83
2018-10-16T22:57:34.175Z,12.91
2018-10-16T23:00:02.483Z,13.01
2018-10-16T23:02:30.620Z,13.05
2018-10-16T23:04:59.683Z,12.88
2018-10-16T23:07:27.779Z,12.82
2018-10-16T23:09:57.085Z,12.79
2018-10-16T23:12:26.187Z,12.80
2018-10-16T23:14:55.147Z,12.74
2018-10-16T23:17:23.299Z,12.87
2018-10-16T23:19:51.472Z,12.99
2018-10-16T23:22:20.294Z,12.90
2018-10-16T23:24:48.592Z,12.79
2018-10-16T23:27:16.837Z,12.75
2018-10-16T23:29:45.251Z,12.67
2018-10-16T23:32:13.370Z,12.63
2018-10-16T23:34:41.657Z,12.70
2018-10-16T23:37:09.991Z,12.64
2018-10-16T23:39:38.092Z,12.65
2018-10-16T23:42:06.459Z,12.65
2018-10-16T23:44:34.570Z,12.66
2018-10-16T23:47:02.962Z,12.71
2018-10-16T23:49:31.170Z,12.61
2018-10-16T23:51:59.462Z,12.59
2018-10-16T23:54:27.780Z,12.50
2018-10-16T23:56:56.124Z,12.41
2018-10-16T23:59:24.238Z,12.42
